KDMN/DMN METAR and TAF weather

Enter ICAO airport designator
Station Type Date Time Source
KDMN METAR 2020/01/18 03:53 UTC NOAA

KDMN 180353Z AUTO 11004KT 10SM CLR 08/M01 A3021 RMK AO2 PRESRR SLP206 T00781006


Station Type Date Time Source
KDMN Decoded METAR 2020/01/18 03:53 UTC NOAA

DEMING MUNICIPAL AIRPORT, NM, United States (KDMN) 32-16N 107-43W 1311M
Jan 17, 2020 - 10:53 PM EST / 2020.01.18 0353 UTC
Wind: from the ESE (110 degrees) at 5 MPH (4 KT):0
Visibility: 10 mile(s):0
Sky conditions: clear
Temperature: 46.0 F (7.8 C)
Dew Point: 30.9 F (-0.6 C)
Relative Humidity: 55%
Pressure (altimeter): 30.21 in. Hg (1023 hPa)
Pressure tendency: rising rapidly
ob: KDMN 180353Z AUTO 11004KT 10SM CLR 08/M01 A3021 RMK AO2 PRESRR SLP206 T00781006
cycle: 4

Station Type Date Time Source
KDMN TAF 2020/01/17 18:30 UTC NOAA

TAF KDMN 171728Z 1718/1818 24010KT P6SM FEW250
FM172100 27013G23KT P6SM SKC
FM180300 30008KT P6SM SKC

Example: see airport list